Time,TemperatureF,DewpointF,PressureIn,WindDirection,WindDirectionDegrees,WindSpeedMPH,WindSpeedGustMPH,Humidity,HourlyPrecipIn,Conditions,Clouds,dailyrainin,SoftwareType,DateUTC
2013-03-24 00:13:00,-999.0,-99.9,-100.00,North,-999,15.0,-999.0,-999,0.00,,,0.65,,2013-03-24 10:13:00,
2013-03-24 00:23:00,-999.0,-99.9,-100.00,North,-999,15.0,-999.0,-999,0.00,,,0.65,,2013-03-24 10:23:00,
2013-03-24 00:33:00,-999.0,-99.9,-100.00,North,-999,15.0,-999.0,-999,0.00,,,0.65,,2013-03-24 10:33:00,
2013-03-24 00:43:00,-999.0,-99.9,-100.00,North,-999,15.0,-999.0,-999,0.00,,,0.65,,2013-03-24 10:43:00,
2013-03-24 01:12:00,70.0,64.0,-100.00,NE,56,13.0,22.0,82,0.00,,,0.52,,2013-03-24 11:12:00,
2013-03-24 01:22:00,70.0,64.0,-100.00,NE,56,13.0,22.0,82,0.00,,,0.52,,2013-03-24 11:22:00,
2013-03-24 01:32:00,70.0,64.0,-100.00,NE,56,13.0,22.0,82,0.00,,,0.52,,2013-03-24 11:32:00,
2013-03-24 01:42:00,70.0,64.0,-100.00,NE,56,13.0,22.0,82,0.00,,,0.52,,2013-03-24 11:42:00,
2013-03-24 03:12:00,71.0,63.0,-100.00,NE,49,13.0,-999.0,77,-99.99,,,-99.99,,2013-03-24 13:12:00,
2013-03-24 03:22:00,71.0,63.0,-100.00,NE,49,13.0,-999.0,77,-99.99,,,-99.99,,2013-03-24 13:22:00,
2013-03-24 03:32:00,71.0,63.0,-100.00,NE,49,13.0,-999.0,77,-99.99,,,-99.99,,2013-03-24 13:32:00,
2013-03-24 03:42:00,71.0,63.0,-100.00,NE,49,13.0,-999.0,77,-99.99,,,-99.99,,2013-03-24 13:42:00,
2013-03-24 04:12:00,71.0,64.0,-100.00,NE,47,16.0,20.0,78,0.00,,,-99.99,,2013-03-24 14:12:00,
2013-03-24 04:22:00,71.0,64.0,-100.00,NE,47,16.0,20.0,78,0.00,,,-99.99,,2013-03-24 14:22:00,
2013-03-24 04:32:00,71.0,64.0,-100.00,NE,47,16.0,20.0,78,0.00,,,-99.99,,2013-03-24 14:32:00,
2013-03-24 04:42:00,71.0,64.0,-100.00,NE,47,16.0,20.0,78,0.00,,,-99.99,,2013-03-24 14:42:00,
2013-03-24 05:12:00,71.0,64.0,-100.00,NE,49,14.0,19.0,78,0.00,,,0.32,,2013-03-24 15:12:00,
2013-03-24 05:22:00,71.0,64.0,-100.00,NE,49,14.0,19.0,78,0.00,,,0.32,,2013-03-24 15:22:00,
2013-03-24 05:33:00,71.0,64.0,-100.00,NE,49,14.0,19.0,78,0.00,,,0.32,,2013-03-24 15:33:00,
2013-03-24 05:43:00,71.0,64.0,-100.00,NE,49,14.0,19.0,78,0.00,,,0.32,,2013-03-24 15:43:00,
2013-03-24 06:12:00,70.0,66.0,-100.00,NE,54,13.0,20.0,86,0.00,,,-99.99,,2013-03-24 16:12:00,
2013-03-24 06:22:00,70.0,66.0,-100.00,NE,54,13.0,20.0,86,0.00,,,-99.99,,2013-03-24 16:22:00,
2013-03-24 06:32:00,70.0,66.0,-100.00,NE,54,13.0,20.0,86,0.00,,,-99.99,,2013-03-24 16:32:00,
2013-03-24 06:42:00,70.0,66.0,-100.00,NE,54,13.0,20.0,86,0.00,,,-99.99,,2013-03-24 16:42:00,
2013-03-24 07:12:00,71.0,67.0,-100.00,NE,39,14.0,18.0,86,0.00,,,-99.99,,2013-03-24 17:12:00,
2013-03-24 07:22:00,71.0,67.0,-100.00,NE,39,14.0,18.0,86,0.00,,,-99.99,,2013-03-24 17:22:00,
2013-03-24 07:32:00,71.0,67.0,-100.00,NE,39,14.0,18.0,86,0.00,,,-99.99,,2013-03-24 17:32:00,
2013-03-24 07:42:00,71.0,67.0,-100.00,NE,39,14.0,18.0,86,0.00,,,-99.99,,2013-03-24 17:42:00,
2013-03-24 08:12:00,72.0,65.0,-100.00,NE,40,14.0,18.0,79,0.00,,,0.30,,2013-03-24 18:12:00,
2013-03-24 08:22:00,72.0,65.0,-100.00,NE,40,14.0,18.0,79,0.00,,,0.30,,2013-03-24 18:22:00,
2013-03-24 08:32:00,72.0,65.0,-100.00,NE,40,14.0,18.0,79,0.00,,,0.30,,2013-03-24 18:32:00,
2013-03-24 08:42:00,72.0,65.0,-100.00,NE,40,14.0,18.0,79,0.00,,,0.30,,2013-03-24 18:42:00,
2013-03-24 09:12:00,72.0,64.0,-100.00,NE,41,14.0,19.0,77,0.00,,,0.06,,2013-03-24 19:12:00,
2013-03-24 09:22:00,72.0,64.0,-100.00,NE,41,14.0,19.0,77,0.00,,,0.06,,2013-03-24 19:22:00,
2013-03-24 09:32:00,72.0,64.0,-100.00,NE,41,14.0,19.0,77,0.00,,,0.06,,2013-03-24 19:32:00,
2013-03-24 09:42:00,72.0,64.0,-100.00,NE,41,14.0,19.0,77,0.00,,,0.06,,2013-03-24 19:42:00,
2013-03-24 10:12:00,72.0,64.0,-100.00,NE,50,13.0,18.0,77,0.00,,,-99.99,,2013-03-24 20:12:00,
2013-03-24 10:22:00,72.0,64.0,-100.00,NE,50,13.0,18.0,77,0.00,,,-99.99,,2013-03-24 20:22:00,
2013-03-24 10:32:00,72.0,64.0,-100.00,NE,50,13.0,18.0,77,0.00,,,-99.99,,2013-03-24 20:32:00,
2013-03-24 10:42:00,72.0,64.0,-100.00,NE,50,13.0,18.0,77,0.00,,,-99.99,,2013-03-24 20:42:00,
2013-03-24 12:13:00,69.0,66.0,-100.00,East,82,14.0,20.0,89,-99.99,,,0.16,,2013-03-24 22:13:00,
2013-03-24 12:22:00,69.0,66.0,-100.00,East,82,14.0,20.0,89,-99.99,,,0.16,,2013-03-24 22:22:00,
2013-03-24 12:33:00,69.0,66.0,-100.00,East,82,14.0,20.0,89,-99.99,,,0.16,,2013-03-24 22:33:00,
2013-03-24 12:42:00,69.0,66.0,-100.00,East,82,14.0,20.0,89,-99.99,,,0.16,,2013-03-24 22:42:00,
2013-03-24 13:12:00,69.0,66.0,-100.00,ENE,59,12.0,16.0,89,0.02,,,0.14,,2013-03-24 23:12:00,
2013-03-24 13:22:00,69.0,66.0,-100.00,ENE,59,12.0,16.0,89,0.02,,,0.14,,2013-03-24 23:22:00,
2013-03-24 13:32:00,69.0,66.0,-100.00,ENE,59,12.0,16.0,89,0.02,,,0.14,,2013-03-24 23:32:00,
2013-03-24 13:42:00,69.0,66.0,-100.00,ENE,59,12.0,16.0,89,0.02,,,0.14,,2013-03-24 23:42:00,
2013-03-24 14:12:00,70.0,67.0,-100.00,NE,45,15.0,-999.0,91,0.01,,,0.15,,2013-03-25 00:12:00,
2013-03-24 14:22:00,70.0,67.0,-100.00,NE,45,15.0,-999.0,91,0.01,,,0.15,,2013-03-25 00:22:00,
2013-03-24 14:32:00,70.0,67.0,-100.00,NE,45,15.0,-999.0,91,0.01,,,0.15,,2013-03-25 00:32:00,
2013-03-24 14:42:00,70.0,67.0,-100.00,NE,45,15.0,-999.0,91,0.01,,,0.15,,2013-03-25 00:42:00,
2013-03-24 15:12:00,70.0,68.0,-100.00,NNE,27,13.0,19.0,92,0.00,,,0.15,,2013-03-25 01:12:00,
2013-03-24 15:22:00,70.0,68.0,-100.00,NNE,27,13.0,19.0,92,0.00,,,0.15,,2013-03-25 01:22:00,
2013-03-24 15:32:00,70.0,68.0,-100.00,NNE,27,13.0,19.0,92,0.00,,,0.15,,2013-03-25 01:32:00,
2013-03-24 15:42:00,70.0,68.0,-100.00,NNE,27,13.0,19.0,92,0.00,,,0.15,,2013-03-25 01:42:00,
2013-03-24 16:12:00,70.0,68.0,-100.00,NE,39,16.0,-999.0,93,0.02,,,0.17,,2013-03-25 02:12:00,
2013-03-24 16:22:00,70.0,68.0,-100.00,NE,39,16.0,-999.0,93,0.02,,,0.17,,2013-03-25 02:22:00,
2013-03-24 16:42:00,70.0,68.0,-100.00,NE,39,16.0,-999.0,93,0.02,,,0.17,,2013-03-25 02:42:00,
2013-03-24 17:12:00,70.0,68.0,-100.00,NE,37,15.0,20.0,93,0.05,,,-99.99,,2013-03-25 03:12:00,
2013-03-24 17:22:00,70.0,68.0,-100.00,NE,37,15.0,20.0,93,0.05,,,-99.99,,2013-03-25 03:22:00,
2013-03-24 17:33:00,70.0,68.0,-100.00,NE,37,15.0,20.0,93,0.05,,,-99.99,,2013-03-25 03:33:00,
2013-03-24 17:42:00,70.0,68.0,-100.00,NE,37,15.0,20.0,93,0.05,,,-99.99,,2013-03-25 03:42:00,
2013-03-24 19:12:00,70.0,67.0,-100.00,ENE,75,17.0,-999.0,90,-99.99,,,0.23,,2013-03-25 05:12:00,
2013-03-24 19:22:00,70.0,67.0,-100.00,ENE,75,17.0,-999.0,90,-99.99,,,0.23,,2013-03-25 05:22:00,
2013-03-24 19:32:00,70.0,67.0,-100.00,ENE,75,17.0,-999.0,90,-99.99,,,0.23,,2013-03-25 05:32:00,
2013-03-24 19:42:00,70.0,67.0,-100.00,ENE,75,17.0,-999.0,90,-99.99,,,0.23,,2013-03-25 05:42:00,
2013-03-24 20:12:00,-999.0,-99.9,-100.00,East,86,13.0,-999.0,-999,0.00,,,0.23,,2013-03-25 06:12:00,
2013-03-24 20:22:00,-999.0,-99.9,-100.00,East,86,13.0,-999.0,-999,0.00,,,0.23,,2013-03-25 06:22:00,
2013-03-24 20:33:00,-999.0,-99.9,-100.00,East,86,13.0,-999.0,-999,0.00,,,0.23,,2013-03-25 06:33:00,
2013-03-24 20:43:00,-999.0,-99.9,-100.00,East,86,13.0,-999.0,-999,0.00,,,0.23,,2013-03-25 06:43:00,
2013-03-24 21:12:00,71.0,67.0,-100.00,East,82,9.0,15.0,86,0.00,,,0.23,,2013-03-25 07:12:00,
2013-03-24 21:21:00,71.0,67.0,-100.00,East,82,9.0,15.0,86,0.00,,,0.23,,2013-03-25 07:21:00,
2013-03-24 21:31:00,71.0,67.0,-100.00,East,82,9.0,15.0,86,0.00,,,0.23,,2013-03-25 07:31:00,
2013-03-24 21:42:00,71.0,67.0,-100.00,East,82,9.0,15.0,86,0.00,,,0.23,,2013-03-25 07:42:00,
2013-03-24 22:12:00,71.0,66.0,-100.00,East,80,10.0,13.0,83,0.00,,,0.23,,2013-03-25 08:12:00,
2013-03-24 22:22:00,71.0,66.0,-100.00,East,80,10.0,13.0,83,0.00,,,0.23,,2013-03-25 08:22:00,
2013-03-24 22:32:00,71.0,66.0,-100.00,East,80,10.0,13.0,83,0.00,,,0.23,,2013-03-25 08:32:00,
2013-03-24 22:42:00,71.0,66.0,-100.00,East,80,10.0,13.0,83,0.00,,,0.23,,2013-03-25 08:42:00,